sensor_id;sensor_type;location;lat;lon;timestamp;temperature;humidity
70928;SHT31;58587;53.034;18.576;2023-07-31T00:00:29;17.79;81.66
70928;SHT31;58587;53.034;18.576;2023-07-31T00:02:54;17.78;83.14
70928;SHT31;58587;53.034;18.576;2023-07-31T00:05:19;17.76;82.89
70928;SHT31;58587;53.034;18.576;2023-07-31T00:07:45;17.76;83.00
70928;SHT31;58587;53.034;18.576;2023-07-31T00:10:10;17.78;83.30
70928;SHT31;58587;53.034;18.576;2023-07-31T00:12:35;17.81;83.43
70928;SHT31;58587;53.034;18.576;2023-07-31T00:15:02;17.74;84.17
70928;SHT31;58587;53.034;18.576;2023-07-31T00:17:27;17.68;83.68
70928;SHT31;58587;53.034;18.576;2023-07-31T00:19:53;17.68;83.90
70928;SHT31;58587;53.034;18.576;2023-07-31T00:22:18;17.62;84.03
70928;SHT31;58587;53.034;18.576;2023-07-31T00:24:43;17.65;83.88
70928;SHT31;58587;53.034;18.576;2023-07-31T00:27:09;17.65;84.24
70928;SHT31;58587;53.034;18.576;2023-07-31T00:29:34;17.64;84.94
70928;SHT31;58587;53.034;18.576;2023-07-31T00:31:59;17.64;85.01
70928;SHT31;58587;53.034;18.576;2023-07-31T00:34:25;17.59;85.70
70928;SHT31;58587;53.034;18.576;2023-07-31T00:36:50;17.59;85.08
70928;SHT31;58587;53.034;18.576;2023-07-31T00:39:15;17.59;84.56
70928;SHT31;58587;53.034;18.576;2023-07-31T00:41:40;17.56;84.78
70928;SHT31;58587;53.034;18.576;2023-07-31T00:44:06;17.59;84.85
70928;SHT31;58587;53.034;18.576;2023-07-31T00:46:31;17.55;85.00
70928;SHT31;58587;53.034;18.576;2023-07-31T00:48:57;17.48;84.46
70928;SHT31;58587;53.034;18.576;2023-07-31T00:51:22;17.46;84.66
70928;SHT31;58587;53.034;18.576;2023-07-31T00:53:48;17.52;84.94
70928;SHT31;58587;53.034;18.576;2023-07-31T00:56:13;17.55;84.96
70928;SHT31;58587;53.034;18.576;2023-07-31T00:58:39;17.51;84.86
70928;SHT31;58587;53.034;18.576;2023-07-31T01:01:05;17.46;84.52
70928;SHT31;58587;53.034;18.576;2023-07-31T01:03:31;17.46;84.41
70928;SHT31;58587;53.034;18.576;2023-07-31T01:09:14;17.51;84.73
70928;SHT31;58587;53.034;18.576;2023-07-31T01:11:52;17.48;84.38
70928;SHT31;58587;53.034;18.576;2023-07-31T01:14:18;17.51;83.87
70928;SHT31;58587;53.034;18.576;2023-07-31T01:16:43;17.48;83.81
70928;SHT31;58587;53.034;18.576;2023-07-31T01:19:09;17.48;83.91
70928;SHT31;58587;53.034;18.576;2023-07-31T01:24:20;17.44;83.90
70928;SHT31;58587;53.034;18.576;2023-07-31T01:26:53;17.42;84.41
70928;SHT31;58587;53.034;18.576;2023-07-31T01:32:19;17.38;84.96
70928;SHT31;58587;53.034;18.576;2023-07-31T01:34:45;17.39;85.02
70928;SHT31;58587;53.034;18.576;2023-07-31T01:37:11;17.36;85.31
70928;SHT31;58587;53.034;18.576;2023-07-31T01:39:37;17.28;85.46
70928;SHT31;58587;53.034;18.576;2023-07-31T01:42:02;17.27;86.19
70928;SHT31;58587;53.034;18.576;2023-07-31T01:44:27;17.22;85.93
70928;SHT31;58587;53.034;18.576;2023-07-31T01:46:53;17.21;86.12
70928;SHT31;58587;53.034;18.576;2023-07-31T01:49:18;17.22;86.39
70928;SHT31;58587;53.034;18.576;2023-07-31T01:51:44;17.25;86.63
70928;SHT31;58587;53.034;18.576;2023-07-31T01:54:09;17.25;86.75
70928;SHT31;58587;53.034;18.576;2023-07-31T01:56:34;17.27;86.80
70928;SHT31;58587;53.034;18.576;2023-07-31T01:58:59;17.27;86.83
70928;SHT31;58587;53.034;18.576;2023-07-31T02:01:25;17.28;86.27
70928;SHT31;58587;53.034;18.576;2023-07-31T02:03:50;17.20;86.50
70928;SHT31;58587;53.034;18.576;2023-07-31T02:06:15;17.18;86.76
70928;SHT31;58587;53.034;18.576;2023-07-31T02:08:41;17.17;86.86
70928;SHT31;58587;53.034;18.576;2023-07-31T02:11:06;17.11;86.88
70928;SHT31;58587;53.034;18.576;2023-07-31T02:13:31;17.04;86.83
70928;SHT31;58587;53.034;18.576;2023-07-31T02:15:57;17.01;87.07
70928;SHT31;58587;53.034;18.576;2023-07-31T02:18:22;17.01;87.24
70928;SHT31;58587;53.034;18.576;2023-07-31T02:20:51;17.00;87.45
70928;SHT31;58587;53.034;18.576;2023-07-31T02:23:20;17.03;87.06
70928;SHT31;58587;53.034;18.576;2023-07-31T02:25:48;17.04;86.75
70928;SHT31;58587;53.034;18.576;2023-07-31T02:28:13;17.03;87.35
70928;SHT31;58587;53.034;18.576;2023-07-31T02:30:38;17.00;87.73
70928;SHT31;58587;53.034;18.576;2023-07-31T02:33:05;16.97;87.41
70928;SHT31;58587;53.034;18.576;2023-07-31T02:35:30;16.99;87.64
70928;SHT31;58587;53.034;18.576;2023-07-31T02:37:55;17.00;87.47
70928;SHT31;58587;53.034;18.576;2023-07-31T02:40:21;16.99;87.03
70928;SHT31;58587;53.034;18.576;2023-07-31T02:42:46;16.95;87.50
70928;SHT31;58587;53.034;18.576;2023-07-31T02:45:12;16.90;87.43
70928;SHT31;58587;53.034;18.576;2023-07-31T02:47:37;16.83;87.74
70928;SHT31;58587;53.034;18.576;2023-07-31T02:50:03;16.85;87.60
70928;SHT31;58587;53.034;18.576;2023-07-31T02:52:29;16.74;87.57
70928;SHT31;58587;53.034;18.576;2023-07-31T02:54:54;16.71;87.75
70928;SHT31;58587;53.034;18.576;2023-07-31T02:57:19;16.74;88.00
70928;SHT31;58587;53.034;18.576;2023-07-31T02:59:45;16.67;87.97
70928;SHT31;58587;53.034;18.576;2023-07-31T03:02:10;16.69;88.01
70928;SHT31;58587;53.034;18.576;2023-07-31T03:04:36;16.66;87.85
70928;SHT31;58587;53.034;18.576;2023-07-31T03:07:01;16.61;87.92
70928;SHT31;58587;53.034;18.576;2023-07-31T03:09:27;16.52;88.35
70928;SHT31;58587;53.034;18.576;2023-07-31T03:11:52;16.48;88.60
70928;SHT31;58587;53.034;18.576;2023-07-31T03:14:17;16.50;88.54
70928;SHT31;58587;53.034;18.576;2023-07-31T03:16:43;16.48;88.74
70928;SHT31;58587;53.034;18.576;2023-07-31T03:19:08;16.43;88.79
70928;SHT31;58587;53.034;18.576;2023-07-31T03:21:33;16.42;88.61
70928;SHT31;58587;53.034;18.576;2023-07-31T03:23:59;16.43;88.77
70928;SHT31;58587;53.034;18.576;2023-07-31T03:26:24;16.40;89.01
70928;SHT31;58587;53.034;18.576;2023-07-31T03:28:49;16.33;89.34
70928;SHT31;58587;53.034;18.576;2023-07-31T03:31:15;16.38;88.98
70928;SHT31;58587;53.034;18.576;2023-07-31T03:33:40;16.39;88.96
70928;SHT31;58587;53.034;18.576;2023-07-31T03:36:05;16.43;89.16
70928;SHT31;58587;53.034;18.576;2023-07-31T03:38:31;16.48;89.25
70928;SHT31;58587;53.034;18.576;2023-07-31T03:40:56;16.46;89.20
70928;SHT31;58587;53.034;18.576;2023-07-31T03:43:23;16.48;89.00
70928;SHT31;58587;53.034;18.576;2023-07-31T03:45:50;16.49;88.96
70928;SHT31;58587;53.034;18.576;2023-07-31T03:48:15;16.52;88.46
70928;SHT31;58587;53.034;18.576;2023-07-31T03:50:41;16.56;88.44
70928;SHT31;58587;53.034;18.576;2023-07-31T03:53:06;16.59;88.38
70928;SHT31;58587;53.034;18.576;2023-07-31T03:55:32;16.53;88.02
70928;SHT31;58587;53.034;18.576;2023-07-31T03:57:57;16.55;88.14
70928;SHT31;58587;53.034;18.576;2023-07-31T04:00:22;16.55;88.25
70928;SHT31;58587;53.034;18.576;2023-07-31T04:02:48;16.61;88.08
70928;SHT31;58587;53.034;18.576;2023-07-31T04:05:13;16.63;88.11
70928;SHT31;58587;53.034;18.576;2023-07-31T04:07:38;16.59;87.51
70928;SHT31;58587;53.034;18.576;2023-07-31T04:10:04;16.64;87.99
70928;SHT31;58587;53.034;18.576;2023-07-31T04:12:29;16.66;87.37
70928;SHT31;58587;53.034;18.576;2023-07-31T04:14:55;16.64;87.71
70928;SHT31;58587;53.034;18.576;2023-07-31T04:17:20;16.69;87.61
70928;SHT31;58587;53.034;18.576;2023-07-31T04:19:45;16.67;87.16
70928;SHT31;58587;53.034;18.576;2023-07-31T04:22:11;16.66;87.24
70928;SHT31;58587;53.034;18.576;2023-07-31T04:24:36;16.67;87.12
70928;SHT31;58587;53.034;18.576;2023-07-31T04:27:01;16.57;86.36
70928;SHT31;58587;53.034;18.576;2023-07-31T04:29:27;16.55;86.70
70928;SHT31;58587;53.034;18.576;2023-07-31T04:31:52;16.53;86.49
70928;SHT31;58587;53.034;18.576;2023-07-31T04:34:17;16.57;86.61
70928;SHT31;58587;53.034;18.576;2023-07-31T04:36:43;16.61;86.25
70928;SHT31;58587;53.034;18.576;2023-07-31T04:39:08;16.60;86.81
70928;SHT31;58587;53.034;18.576;2023-07-31T04:41:33;16.53;86.25
70928;SHT31;58587;53.034;18.576;2023-07-31T04:43:59;16.63;86.60
70928;SHT31;58587;53.034;18.576;2023-07-31T04:46:24;16.67;86.18
70928;SHT31;58587;53.034;18.576;2023-07-31T04:48:49;16.71;86.36
70928;SHT31;58587;53.034;18.576;2023-07-31T04:51:15;16.70;86.03
70928;SHT31;58587;53.034;18.576;2023-07-31T04:53:40;16.74;86.01
70928;SHT31;58587;53.034;18.576;2023-07-31T04:56:05;16.80;85.29
70928;SHT31;58587;53.034;18.576;2023-07-31T04:58:31;16.83;85.33
70928;SHT31;58587;53.034;18.576;2023-07-31T05:00:56;16.83;84.83
70928;SHT31;58587;53.034;18.576;2023-07-31T05:03:21;16.83;85.13
70928;SHT31;58587;53.034;18.576;2023-07-31T05:05:47;16.90;84.97
70928;SHT31;58587;53.034;18.576;2023-07-31T05:08:12;16.94;85.03
70928;SHT31;58587;53.034;18.576;2023-07-31T05:10:37;16.99;85.23
70928;SHT31;58587;53.034;18.576;2023-07-31T05:13:03;16.99;84.31
70928;SHT31;58587;53.034;18.576;2023-07-31T05:15:28;17.03;83.96
70928;SHT31;58587;53.034;18.576;2023-07-31T05:17:54;16.99;83.59
70928;SHT31;58587;53.034;18.576;2023-07-31T05:20:20;17.06;84.06
70928;SHT31;58587;53.034;18.576;2023-07-31T05:22:45;17.10;84.01
70928;SHT31;58587;53.034;18.576;2023-07-31T05:25:10;17.11;83.59
70928;SHT31;58587;53.034;18.576;2023-07-31T05:27:36;17.08;83.48
70928;SHT31;58587;53.034;18.576;2023-07-31T05:30:01;17.18;83.67
70928;SHT31;58587;53.034;18.576;2023-07-31T05:32:27;17.21;83.86
70928;SHT31;58587;53.034;18.576;2023-07-31T05:34:52;17.18;82.99
70928;SHT31;58587;53.034;18.576;2023-07-31T05:37:18;17.25;83.51
70928;SHT31;58587;53.034;18.576;2023-07-31T05:39:44;17.28;83.10
70928;SHT31;58587;53.034;18.576;2023-07-31T05:42:09;17.31;82.93
70928;SHT31;58587;53.034;18.576;2023-07-31T05:44:35;17.38;82.97
70928;SHT31;58587;53.034;18.576;2023-07-31T05:47:00;17.44;82.73
70928;SHT31;58587;53.034;18.576;2023-07-31T05:49:25;17.48;82.64
70928;SHT31;58587;53.034;18.576;2023-07-31T05:51:50;17.51;82.29
70928;SHT31;58587;53.034;18.576;2023-07-31T05:54:16;17.56;81.61
70928;SHT31;58587;53.034;18.576;2023-07-31T05:56:41;17.61;81.43
70928;SHT31;58587;53.034;18.576;2023-07-31T05:59:09;17.68;81.95
70928;SHT31;58587;53.034;18.576;2023-07-31T06:01:35;17.66;81.25
70928;SHT31;58587;53.034;18.576;2023-07-31T06:04:00;17.66;81.93
70928;SHT31;58587;53.034;18.576;2023-07-31T06:06:25;17.66;81.33
70928;SHT31;58587;53.034;18.576;2023-07-31T06:08:50;17.68;81.23
70928;SHT31;58587;53.034;18.576;2023-07-31T06:11:16;17.68;81.49
70928;SHT31;58587;53.034;18.576;2023-07-31T06:13:41;17.64;81.28
70928;SHT31;58587;53.034;18.576;2023-07-31T06:16:06;17.66;81.57
70928;SHT31;58587;53.034;18.576;2023-07-31T06:18:32;17.69;81.16
70928;SHT31;58587;53.034;18.576;2023-07-31T06:20:58;17.65;80.96
70928;SHT31;58587;53.034;18.576;2023-07-31T06:23:23;17.68;80.96
70928;SHT31;58587;53.034;18.576;2023-07-31T06:25:48;17.78;80.30
70928;SHT31;58587;53.034;18.576;2023-07-31T06:28:14;17.79;79.39
70928;SHT31;58587;53.034;18.576;2023-07-31T06:30:39;17.82;80.14
70928;SHT31;58587;53.034;18.576;2023-07-31T06:33:04;17.89;80.38
70928;SHT31;58587;53.034;18.576;2023-07-31T06:35:29;17.95;79.74
70928;SHT31;58587;53.034;18.576;2023-07-31T06:37:55;17.92;78.91
70928;SHT31;58587;53.034;18.576;2023-07-31T06:40:21;18.02;79.11
70928;SHT31;58587;53.034;18.576;2023-07-31T06:42:47;18.07;78.18
70928;SHT31;58587;53.034;18.576;2023-07-31T06:45:12;18.13;77.84
70928;SHT31;58587;53.034;18.576;2023-07-31T06:47:37;18.17;77.99
70928;SHT31;58587;53.034;18.576;2023-07-31T06:50:03;18.34;78.25
70928;SHT31;58587;53.034;18.576;2023-07-31T06:52:29;18.38;78.36
70928;SHT31;58587;53.034;18.576;2023-07-31T06:55:15;18.48;78.03
70928;SHT31;58587;53.034;18.576;2023-07-31T06:57:43;18.56;77.87
70928;SHT31;58587;53.034;18.576;2023-07-31T07:00:09;18.56;77.31
70928;SHT31;58587;53.034;18.576;2023-07-31T07:02:35;18.67;77.54
70928;SHT31;58587;53.034;18.576;2023-07-31T07:05:00;18.60;76.54
70928;SHT31;58587;53.034;18.576;2023-07-31T07:07:26;18.70;76.49
70928;SHT31;58587;53.034;18.576;2023-07-31T07:09:51;18.78;76.29
70928;SHT31;58587;53.034;18.576;2023-07-31T07:12:17;18.80;76.32
70928;SHT31;58587;53.034;18.576;2023-07-31T07:14:42;18.81;76.45
70928;SHT31;58587;53.034;18.576;2023-07-31T07:17:07;18.91;76.25
70928;SHT31;58587;53.034;18.576;2023-07-31T07:19:32;19.04;75.67
70928;SHT31;58587;53.034;18.576;2023-07-31T07:21:58;19.16;74.74
70928;SHT31;58587;53.034;18.576;2023-07-31T07:24:26;19.25;74.77
70928;SHT31;58587;53.034;18.576;2023-07-31T07:26:51;19.33;74.69
70928;SHT31;58587;53.034;18.576;2023-07-31T07:29:16;19.33;73.56
70928;SHT31;58587;53.034;18.576;2023-07-31T07:31:42;19.43;73.26
70928;SHT31;58587;53.034;18.576;2023-07-31T07:34:07;19.46;72.69
70928;SHT31;58587;53.034;18.576;2023-07-31T07:36:32;19.53;71.45
70928;SHT31;58587;53.034;18.576;2023-07-31T07:38:58;19.52;71.43
70928;SHT31;58587;53.034;18.576;2023-07-31T07:41:23;19.62;71.80
70928;SHT31;58587;53.034;18.576;2023-07-31T07:43:49;19.70;71.87
70928;SHT31;58587;53.034;18.576;2023-07-31T07:46:14;19.66;69.94
70928;SHT31;58587;53.034;18.576;2023-07-31T07:48:39;19.72;71.04
70928;SHT31;58587;53.034;18.576;2023-07-31T07:51:05;19.80;71.79
70928;SHT31;58587;53.034;18.576;2023-07-31T07:53:30;19.84;70.91
70928;SHT31;58587;53.034;18.576;2023-07-31T07:55:56;19.97;71.23
70928;SHT31;58587;53.034;18.576;2023-07-31T07:58:21;20.01;69.88
70928;SHT31;58587;53.034;18.576;2023-07-31T08:00:53;20.10;69.87
70928;SHT31;58587;53.034;18.576;2023-07-31T08:03:18;20.20;69.28
70928;SHT31;58587;53.034;18.576;2023-07-31T08:05:44;20.26;68.47
70928;SHT31;58587;53.034;18.576;2023-07-31T08:08:17;20.30;68.01
70928;SHT31;58587;53.034;18.576;2023-07-31T08:10:43;20.33;67.28
70928;SHT31;58587;53.034;18.576;2023-07-31T08:13:10;20.31;67.66
70928;SHT31;58587;53.034;18.576;2023-07-31T08:15:36;20.23;65.98
70928;SHT31;58587;53.034;18.576;2023-07-31T08:18:01;20.23;65.05
70928;SHT31;58587;53.034;18.576;2023-07-31T08:20:27;20.31;64.51
70928;SHT31;58587;53.034;18.576;2023-07-31T08:22:52;20.34;66.22
70928;SHT31;58587;53.034;18.576;2023-07-31T08:25:18;20.40;66.23
70928;SHT31;58587;53.034;18.576;2023-07-31T08:27:43;20.47;65.83
70928;SHT31;58587;53.034;18.576;2023-07-31T08:30:10;20.51;65.60
70928;SHT31;58587;53.034;18.576;2023-07-31T08:32:35;20.58;65.49
70928;SHT31;58587;53.034;18.576;2023-07-31T08:35:01;20.69;64.75
70928;SHT31;58587;53.034;18.576;2023-07-31T08:37:26;20.84;64.70
70928;SHT31;58587;53.034;18.576;2023-07-31T08:39:51;20.96;63.63
70928;SHT31;58587;53.034;18.576;2023-07-31T08:42:17;21.05;62.69
70928;SHT31;58587;53.034;18.576;2023-07-31T08:44:43;21.13;61.94
70928;SHT31;58587;53.034;18.576;2023-07-31T08:47:09;21.23;62.10
70928;SHT31;58587;53.034;18.576;2023-07-31T08:49:35;21.38;62.02
70928;SHT31;58587;53.034;18.576;2023-07-31T08:52:01;21.57;62.60
70928;SHT31;58587;53.034;18.576;2023-07-31T08:54:26;21.74;63.70
70928;SHT31;58587;53.034;18.576;2023-07-31T08:56:56;21.80;62.38
70928;SHT31;58587;53.034;18.576;2023-07-31T08:59:22;21.80;60.69
70928;SHT31;58587;53.034;18.576;2023-07-31T09:01:50;21.83;60.20
70928;SHT31;58587;53.034;18.576;2023-07-31T09:04:18;21.79;59.93
70928;SHT31;58587;53.034;18.576;2023-07-31T09:06:44;21.79;59.87
70928;SHT31;58587;53.034;18.576;2023-07-31T09:09:10;21.80;61.78
70928;SHT31;58587;53.034;18.576;2023-07-31T09:11:37;21.87;61.86
70928;SHT31;58587;53.034;18.576;2023-07-31T09:14:02;21.90;60.33
70928;SHT31;58587;53.034;18.576;2023-07-31T09:16:33;21.87;59.76
70928;SHT31;58587;53.034;18.576;2023-07-31T09:18:59;21.93;60.71
70928;SHT31;58587;53.034;18.576;2023-07-31T09:21:27;21.86;60.22
70928;SHT31;58587;53.034;18.576;2023-07-31T09:23:53;21.86;59.97
70928;SHT31;58587;53.034;18.576;2023-07-31T09:26:31;21.94;60.34
70928;SHT31;58587;53.034;18.576;2023-07-31T09:28:58;21.97;59.16
70928;SHT31;58587;53.034;18.576;2023-07-31T09:31:40;22.11;59.62
70928;SHT31;58587;53.034;18.576;2023-07-31T09:34:06;22.17;59.93
70928;SHT31;58587;53.034;18.576;2023-07-31T09:36:32;22.25;59.81
70928;SHT31;58587;53.034;18.576;2023-07-31T09:39:03;22.31;60.35
70928;SHT31;58587;53.034;18.576;2023-07-31T09:41:31;22.41;60.20
70928;SHT31;58587;53.034;18.576;2023-07-31T09:43:56;22.44;60.06
70928;SHT31;58587;53.034;18.576;2023-07-31T09:46:21;22.59;59.47
70928;SHT31;58587;53.034;18.576;2023-07-31T09:48:47;22.75;60.45
70928;SHT31;58587;53.034;18.576;2023-07-31T09:51:13;22.79;59.51
70928;SHT31;58587;53.034;18.576;2023-07-31T09:53:38;22.81;59.29
70928;SHT31;58587;53.034;18.576;2023-07-31T09:56:04;22.78;57.65
70928;SHT31;58587;53.034;18.576;2023-07-31T09:58:33;22.72;58.61
70928;SHT31;58587;53.034;18.576;2023-07-31T10:01:00;22.75;57.73
70928;SHT31;58587;53.034;18.576;2023-07-31T10:03:27;22.61;57.99
70928;SHT31;58587;53.034;18.576;2023-07-31T10:05:55;22.65;59.08
70928;SHT31;58587;53.034;18.576;2023-07-31T10:08:27;22.68;59.23
70928;SHT31;58587;53.034;18.576;2023-07-31T10:10:58;22.62;58.84
70928;SHT31;58587;53.034;18.576;2023-07-31T10:13:24;22.55;58.42
70928;SHT31;58587;53.034;18.576;2023-07-31T10:15:50;22.52;58.42
70928;SHT31;58587;53.034;18.576;2023-07-31T10:18:16;22.59;60.13
70928;SHT31;58587;53.034;18.576;2023-07-31T10:20:43;22.55;59.50
70928;SHT31;58587;53.034;18.576;2023-07-31T10:23:09;22.47;60.14
70928;SHT31;58587;53.034;18.576;2023-07-31T10:25:35;22.31;59.73
70928;SHT31;58587;53.034;18.576;2023-07-31T10:28:00;22.13;60.11
70928;SHT31;58587;53.034;18.576;2023-07-31T10:30:28;21.96;59.79
70928;SHT31;58587;53.034;18.576;2023-07-31T10:32:55;21.81;60.84
70928;SHT31;58587;53.034;18.576;2023-07-31T10:35:21;21.59;61.59
70928;SHT31;58587;53.034;18.576;2023-07-31T10:37:47;21.56;63.86
70928;SHT31;58587;53.034;18.576;2023-07-31T10:40:18;21.43;63.49
70928;SHT31;58587;53.034;18.576;2023-07-31T10:42:51;21.32;63.62
70928;SHT31;58587;53.034;18.576;2023-07-31T10:45:44;20.98;68.87
70928;SHT31;58587;53.034;18.576;2023-07-31T10:48:16;20.65;71.96
70928;SHT31;58587;53.034;18.576;2023-07-31T10:50:54;20.34;74.80
70928;SHT31;58587;53.034;18.576;2023-07-31T10:55:49;20.14;76.08
70928;SHT31;58587;53.034;18.576;2023-07-31T10:58:18;20.14;77.00
70928;SHT31;58587;53.034;18.576;2023-07-31T11:00:44;20.07;76.47
70928;SHT31;58587;53.034;18.576;2023-07-31T11:03:15;19.97;77.13
70928;SHT31;58587;53.034;18.576;2023-07-31T11:05:42;20.00;78.18
70928;SHT31;58587;53.034;18.576;2023-07-31T11:08:28;20.00;78.11
70928;SHT31;58587;53.034;18.576;2023-07-31T11:13:32;20.03;78.17
70928;SHT31;58587;53.034;18.576;2023-07-31T11:15:58;20.07;77.41
70928;SHT31;58587;53.034;18.576;2023-07-31T11:18:26;20.00;78.16
70928;SHT31;58587;53.034;18.576;2023-07-31T11:20:52;20.04;76.99
70928;SHT31;58587;53.034;18.576;2023-07-31T11:23:18;20.27;75.98
70928;SHT31;58587;53.034;18.576;2023-07-31T11:25:44;20.41;76.66
70928;SHT31;58587;53.034;18.576;2023-07-31T11:28:12;20.58;76.51
70928;SHT31;58587;53.034;18.576;2023-07-31T11:30:38;20.84;75.79
70928;SHT31;58587;53.034;18.576;2023-07-31T11:33:06;21.05;76.08
70928;SHT31;58587;53.034;18.576;2023-07-31T11:35:40;21.15;73.24
70928;SHT31;58587;53.034;18.576;2023-07-31T11:38:07;21.32;73.73
70928;SHT31;58587;53.034;18.576;2023-07-31T11:40:41;21.25;73.68
70928;SHT31;58587;53.034;18.576;2023-07-31T11:43:07;21.26;74.53
70928;SHT31;58587;53.034;18.576;2023-07-31T11:45:33;21.33;74.88
70928;SHT31;58587;53.034;18.576;2023-07-31T11:48:00;21.32;72.94
70928;SHT31;58587;53.034;18.576;2023-07-31T11:50:26;21.15;71.70
70928;SHT31;58587;53.034;18.576;2023-07-31T11:52:57;21.02;68.81
70928;SHT31;58587;53.034;18.576;2023-07-31T11:55:25;20.85;68.60
70928;SHT31;58587;53.034;18.576;2023-07-31T11:57:51;20.64;69.11
70928;SHT31;58587;53.034;18.576;2023-07-31T12:00:18;20.48;69.04
70928;SHT31;58587;53.034;18.576;2023-07-31T12:02:43;20.28;68.27
70928;SHT31;58587;53.034;18.576;2023-07-31T12:05:13;20.28;69.14
70928;SHT31;58587;53.034;18.576;2023-07-31T12:07:55;20.16;69.62
70928;SHT31;58587;53.034;18.576;2023-07-31T12:10:31;20.03;69.55
70928;SHT31;58587;53.034;18.576;2023-07-31T12:13:04;19.92;69.84
70928;SHT31;58587;53.034;18.576;2023-07-31T12:15:41;19.89;70.10
70928;SHT31;58587;53.034;18.576;2023-07-31T12:18:09;19.84;70.70
70928;SHT31;58587;53.034;18.576;2023-07-31T12:20:35;19.76;72.58
70928;SHT31;58587;53.034;18.576;2023-07-31T12:23:04;19.80;72.63
70928;SHT31;58587;53.034;18.576;2023-07-31T12:25:31;19.73;72.47
70928;SHT31;58587;53.034;18.576;2023-07-31T12:27:57;19.86;72.82
70928;SHT31;58587;53.034;18.576;2023-07-31T12:30:27;19.94;72.33
70928;SHT31;58587;53.034;18.576;2023-07-31T12:32:53;20.13;72.31
70928;SHT31;58587;53.034;18.576;2023-07-31T12:35:18;20.27;72.14
70928;SHT31;58587;53.034;18.576;2023-07-31T12:37:43;20.41;70.96
70928;SHT31;58587;53.034;18.576;2023-07-31T12:40:09;20.74;72.16
70928;SHT31;58587;53.034;18.576;2023-07-31T12:42:35;20.94;69.23
70928;SHT31;58587;53.034;18.576;2023-07-31T12:45:00;20.98;70.46
70928;SHT31;58587;53.034;18.576;2023-07-31T12:47:25;20.99;69.25
70928;SHT31;58587;53.034;18.576;2023-07-31T12:49:50;20.79;69.33
70928;SHT31;58587;53.034;18.576;2023-07-31T12:52:16;20.77;70.53
70928;SHT31;58587;53.034;18.576;2023-07-31T12:54:41;20.79;70.32
70928;SHT31;58587;53.034;18.576;2023-07-31T12:57:06;20.63;69.07
70928;SHT31;58587;53.034;18.576;2023-07-31T12:59:32;20.65;68.95
70928;SHT31;58587;53.034;18.576;2023-07-31T13:01:57;20.63;69.29
70928;SHT31;58587;53.034;18.576;2023-07-31T13:04:22;20.59;69.83
70928;SHT31;58587;53.034;18.576;2023-07-31T13:06:48;20.57;69.63
70928;SHT31;58587;53.034;18.576;2023-07-31T13:09:13;20.45;69.89
70928;SHT31;58587;53.034;18.576;2023-07-31T13:11:38;20.43;70.73
70928;SHT31;58587;53.034;18.576;2023-07-31T13:14:04;20.36;70.81
70928;SHT31;58587;53.034;18.576;2023-07-31T13:16:29;20.30;70.41
70928;SHT31;58587;53.034;18.576;2023-07-31T13:18:54;20.16;71.39
70928;SHT31;58587;53.034;18.576;2023-07-31T13:21:20;20.16;71.21
70928;SHT31;58587;53.034;18.576;2023-07-31T13:23:47;20.20;70.41
70928;SHT31;58587;53.034;18.576;2023-07-31T13:26:12;20.16;70.41
70928;SHT31;58587;53.034;18.576;2023-07-31T13:28:37;20.03;71.22
70928;SHT31;58587;53.034;18.576;2023-07-31T13:31:03;19.98;71.67
70928;SHT31;58587;53.034;18.576;2023-07-31T13:33:28;20.03;72.04
70928;SHT31;58587;53.034;18.576;2023-07-31T13:35:53;20.04;71.68
70928;SHT31;58587;53.034;18.576;2023-07-31T13:38:19;20.06;71.52
70928;SHT31;58587;53.034;18.576;2023-07-31T13:40:44;19.96;71.01
70928;SHT31;58587;53.034;18.576;2023-07-31T13:43:09;19.94;71.51
70928;SHT31;58587;53.034;18.576;2023-07-31T13:45:34;19.92;72.05
70928;SHT31;58587;53.034;18.576;2023-07-31T13:48:00;19.89;71.58
70928;SHT31;58587;53.034;18.576;2023-07-31T13:50:26;19.90;71.59
70928;SHT31;58587;53.034;18.576;2023-07-31T13:52:52;19.86;71.43
70928;SHT31;58587;53.034;18.576;2023-07-31T13:55:17;19.94;71.75
70928;SHT31;58587;53.034;18.576;2023-07-31T13:57:42;19.96;71.73
70928;SHT31;58587;53.034;18.576;2023-07-31T14:00:08;19.87;71.84
70928;SHT31;58587;53.034;18.576;2023-07-31T14:02:35;19.74;72.03
70928;SHT31;58587;53.034;18.576;2023-07-31T14:05:01;19.83;72.11
70928;SHT31;58587;53.034;18.576;2023-07-31T14:07:26;19.87;73.59
70928;SHT31;58587;53.034;18.576;2023-07-31T14:09:51;19.87;72.77
70928;SHT31;58587;53.034;18.576;2023-07-31T14:12:17;19.86;73.08
70928;SHT31;58587;53.034;18.576;2023-07-31T14:14:42;19.86;73.44
70928;SHT31;58587;53.034;18.576;2023-07-31T14:17:07;19.84;72.55
70928;SHT31;58587;53.034;18.576;2023-07-31T14:19:32;19.84;72.75
70928;SHT31;58587;53.034;18.576;2023-07-31T14:21:59;19.77;73.21
70928;SHT31;58587;53.034;18.576;2023-07-31T14:24:24;19.87;73.15
70928;SHT31;58587;53.034;18.576;2023-07-31T14:26:50;19.89;73.58
70928;SHT31;58587;53.034;18.576;2023-07-31T14:29:15;19.89;72.88
70928;SHT31;58587;53.034;18.576;2023-07-31T14:31:40;19.90;72.34
70928;SHT31;58587;53.034;18.576;2023-07-31T14:34:06;19.89;73.19
70928;SHT31;58587;53.034;18.576;2023-07-31T14:36:31;19.80;72.91
70928;SHT31;58587;53.034;18.576;2023-07-31T14:38:56;19.74;73.15
70928;SHT31;58587;53.034;18.576;2023-07-31T14:41:22;19.82;72.98
70928;SHT31;58587;53.034;18.576;2023-07-31T14:43:47;19.82;73.03
70928;SHT31;58587;53.034;18.576;2023-07-31T14:46:12;19.73;73.15
70928;SHT31;58587;53.034;18.576;2023-07-31T14:48:37;19.66;73.39
70928;SHT31;58587;53.034;18.576;2023-07-31T14:51:03;19.63;74.85
70928;SHT31;58587;53.034;18.576;2023-07-31T14:53:28;19.51;75.97
70928;SHT31;58587;53.034;18.576;2023-07-31T14:55:53;19.49;76.73
70928;SHT31;58587;53.034;18.576;2023-07-31T14:58:19;19.43;78.36
70928;SHT31;58587;53.034;18.576;2023-07-31T15:00:45;19.53;77.81
70928;SHT31;58587;53.034;18.576;2023-07-31T15:03:10;19.67;78.46
70928;SHT31;58587;53.034;18.576;2023-07-31T15:05:36;19.77;77.44
70928;SHT31;58587;53.034;18.576;2023-07-31T15:08:01;19.77;77.43
70928;SHT31;58587;53.034;18.576;2023-07-31T15:10:26;19.82;77.05
70928;SHT31;58587;53.034;18.576;2023-07-31T15:12:52;20.06;76.86
70928;SHT31;58587;53.034;18.576;2023-07-31T15:15:17;20.34;75.32
70928;SHT31;58587;53.034;18.576;2023-07-31T15:17:42;20.30;75.68
70928;SHT31;58587;53.034;18.576;2023-07-31T15:20:09;20.33;75.49
70928;SHT31;58587;53.034;18.576;2023-07-31T15:22:35;20.23;75.61